sensor_id;sensor_type;location;lat;lon;timestamp;P1;durP1;ratioP1;P2;durP2;ratioP2
2107;SDS011;1060;52.492;13.388;2023-04-19T00:02:42;7.03;;;4.07;;
2107;SDS011;1060;52.492;13.388;2023-04-19T00:05:12;4.67;;;4.27;;
2107;SDS011;1060;52.492;13.388;2023-04-19T00:07:42;7.70;;;4.20;;
2107;SDS011;1060;52.492;13.388;2023-04-19T00:10:35;5.97;;;4.27;;
2107;SDS011;1060;52.492;13.388;2023-04-19T00:13:06;5.23;;;4.50;;
2107;SDS011;1060;52.492;13.388;2023-04-19T00:15:39;6.97;;;4.20;;
2107;SDS011;1060;52.492;13.388;2023-04-19T00:18:19;6.97;;;4.27;;
2107;SDS011;1060;52.492;13.388;2023-04-19T00:21:10;6.90;;;4.57;;
2107;SDS011;1060;52.492;13.388;2023-04-19T00:23:45;12.87;;;4.60;;
2107;SDS011;1060;52.492;13.388;2023-04-19T00:26:50;5.73;;;4.43;;
2107;SDS011;1060;52.492;13.388;2023-04-19T00:29:23;6.00;;;5.43;;
2107;SDS011;1060;52.492;13.388;2023-04-19T00:31:57;8.60;;;4.77;;
2107;SDS011;1060;52.492;13.388;2023-04-19T00:34:47;5.43;;;3.97;;
2107;SDS011;1060;52.492;13.388;2023-04-19T00:37:22;6.20;;;3.63;;
2107;SDS011;1060;52.492;13.388;2023-04-19T00:39:56;6.97;;;3.80;;
2107;SDS011;1060;52.492;13.388;2023-04-19T00:42:25;9.07;;;3.80;;
2107;SDS011;1060;52.492;13.388;2023-04-19T00:44:52;7.67;;;4.47;;
2107;SDS011;1060;52.492;13.388;2023-04-19T00:47:20;5.70;;;4.70;;
2107;SDS011;1060;52.492;13.388;2023-04-19T00:49:47;4.87;;;4.57;;
2107;SDS011;1060;52.492;13.388;2023-04-19T00:52:18;4.73;;;3.73;;
2107;SDS011;1060;52.492;13.388;2023-04-19T00:54:48;5.73;;;3.30;;
2107;SDS011;1060;52.492;13.388;2023-04-19T00:57:17;4.57;;;4.20;;
2107;SDS011;1060;52.492;13.388;2023-04-19T00:59:53;4.47;;;4.07;;
2107;SDS011;1060;52.492;13.388;2023-04-19T01:02:21;3.37;;;3.10;;
2107;SDS011;1060;52.492;13.388;2023-04-19T01:04:52;4.00;;;3.60;;
2107;SDS011;1060;52.492;13.388;2023-04-19T01:07:20;5.63;;;3.67;;
2107;SDS011;1060;52.492;13.388;2023-04-19T01:09:48;5.13;;;3.10;;
2107;SDS011;1060;52.492;13.388;2023-04-19T01:12:15;7.50;;;3.67;;
2107;SDS011;1060;52.492;13.388;2023-04-19T01:14:41;4.23;;;3.80;;
2107;SDS011;1060;52.492;13.388;2023-04-19T01:17:08;5.67;;;5.17;;
2107;SDS011;1060;52.492;13.388;2023-04-19T01:19:35;4.50;;;3.50;;
2107;SDS011;1060;52.492;13.388;2023-04-19T01:22:02;5.30;;;3.10;;
2107;SDS011;1060;52.492;13.388;2023-04-19T01:24:30;4.03;;;3.67;;
2107;SDS011;1060;52.492;13.388;2023-04-19T01:26:57;3.80;;;3.50;;
2107;SDS011;1060;52.492;13.388;2023-04-19T01:29:23;4.90;;;3.73;;
2107;SDS011;1060;52.492;13.388;2023-04-19T01:31:49;5.10;;;4.20;;
2107;SDS011;1060;52.492;13.388;2023-04-19T01:34:20;4.13;;;3.77;;
2107;SDS011;1060;52.492;13.388;2023-04-19T01:36:49;6.60;;;3.83;;
2107;SDS011;1060;52.492;13.388;2023-04-19T01:39:15;4.63;;;3.63;;
2107;SDS011;1060;52.492;13.388;2023-04-19T01:41:41;3.70;;;3.40;;
2107;SDS011;1060;52.492;13.388;2023-04-19T01:44:08;4.10;;;3.73;;
2107;SDS011;1060;52.492;13.388;2023-04-19T01:46:35;3.27;;;2.80;;
2107;SDS011;1060;52.492;13.388;2023-04-19T01:49:03;7.60;;;4.27;;
2107;SDS011;1060;52.492;13.388;2023-04-19T01:51:29;9.47;;;3.50;;
2107;SDS011;1060;52.492;13.388;2023-04-19T01:53:55;5.23;;;2.97;;
2107;SDS011;1060;52.492;13.388;2023-04-19T01:56:22;3.67;;;3.37;;
2107;SDS011;1060;52.492;13.388;2023-04-19T01:58:48;5.20;;;4.70;;
2107;SDS011;1060;52.492;13.388;2023-04-19T02:01:15;4.23;;;3.60;;
2107;SDS011;1060;52.492;13.388;2023-04-19T02:03:41;4.13;;;3.80;;
2107;SDS011;1060;52.492;13.388;2023-04-19T02:06:12;4.07;;;3.30;;
2107;SDS011;1060;52.492;13.388;2023-04-19T02:08:42;4.50;;;3.63;;
2107;SDS011;1060;52.492;13.388;2023-04-19T02:11:08;5.67;;;3.63;;
2107;SDS011;1060;52.492;13.388;2023-04-19T02:13:35;4.00;;;3.70;;
2107;SDS011;1060;52.492;13.388;2023-04-19T02:16:05;5.87;;;4.10;;
2107;SDS011;1060;52.492;13.388;2023-04-19T02:18:31;5.37;;;4.10;;
2107;SDS011;1060;52.492;13.388;2023-04-19T02:21:05;4.70;;;3.93;;
2107;SDS011;1060;52.492;13.388;2023-04-19T02:23:31;7.03;;;4.00;;
2107;SDS011;1060;52.492;13.388;2023-04-19T02:25:58;5.20;;;3.50;;
2107;SDS011;1060;52.492;13.388;2023-04-19T02:28:27;5.67;;;4.53;;
2107;SDS011;1060;52.492;13.388;2023-04-19T02:30:54;6.47;;;4.67;;
2107;SDS011;1060;52.492;13.388;2023-04-19T02:33:20;4.60;;;4.30;;
2107;SDS011;1060;52.492;13.388;2023-04-19T02:35:47;3.67;;;3.13;;
2107;SDS011;1060;52.492;13.388;2023-04-19T02:38:13;4.18;;;3.60;;
2107;SDS011;1060;52.492;13.388;2023-04-19T02:40:39;7.55;;;4.60;;
2107;SDS011;1060;52.492;13.388;2023-04-19T02:43:05;4.53;;;3.53;;
2107;SDS011;1060;52.492;13.388;2023-04-19T02:45:32;3.97;;;2.60;;
2107;SDS011;1060;52.492;13.388;2023-04-19T02:47:58;5.17;;;3.57;;
2107;SDS011;1060;52.492;13.388;2023-04-19T02:50:25;4.30;;;2.77;;
2107;SDS011;1060;52.492;13.388;2023-04-19T02:52:52;8.37;;;4.43;;
2107;SDS011;1060;52.492;13.388;2023-04-19T02:55:19;4.60;;;3.13;;
2107;SDS011;1060;52.492;13.388;2023-04-19T02:57:50;5.67;;;3.43;;
2107;SDS011;1060;52.492;13.388;2023-04-19T03:00:16;5.30;;;3.53;;
2107;SDS011;1060;52.492;13.388;2023-04-19T03:02:53;4.95;;;3.92;;
2107;SDS011;1060;52.492;13.388;2023-04-19T03:05:23;4.47;;;4.10;;
2107;SDS011;1060;52.492;13.388;2023-04-19T03:07:49;3.90;;;3.60;;
2107;SDS011;1060;52.492;13.388;2023-04-19T03:10:16;3.47;;;3.22;;
2107;SDS011;1060;52.492;13.388;2023-04-19T03:12:42;3.10;;;2.67;;
2107;SDS011;1060;52.492;13.388;2023-04-19T03:15:08;3.22;;;2.92;;
2107;SDS011;1060;52.492;13.388;2023-04-19T03:17:35;3.80;;;3.42;;
2107;SDS011;1060;52.492;13.388;2023-04-19T03:20:01;2.53;;;2.23;;
2107;SDS011;1060;52.492;13.388;2023-04-19T03:22:36;5.82;;;3.38;;
2107;SDS011;1060;52.492;13.388;2023-04-19T03:25:03;5.23;;;3.63;;
2107;SDS011;1060;52.492;13.388;2023-04-19T03:27:29;3.20;;;2.65;;
2107;SDS011;1060;52.492;13.388;2023-04-19T03:29:59;4.35;;;3.22;;
2107;SDS011;1060;52.492;13.388;2023-04-19T03:32:27;2.70;;;2.50;;
2107;SDS011;1060;52.492;13.388;2023-04-19T03:34:54;4.53;;;4.13;;
2107;SDS011;1060;52.492;13.388;2023-04-19T03:37:20;4.72;;;3.03;;
2107;SDS011;1060;52.492;13.388;2023-04-19T03:39:46;5.47;;;2.70;;
2107;SDS011;1060;52.492;13.388;2023-04-19T03:42:18;6.45;;;3.88;;
2107;SDS011;1060;52.492;13.388;2023-04-19T03:44:57;3.30;;;3.00;;
2107;SDS011;1060;52.492;13.388;2023-04-19T03:47:25;4.00;;;3.13;;
2107;SDS011;1060;52.492;13.388;2023-04-19T03:49:54;3.53;;;3.17;;
2107;SDS011;1060;52.492;13.388;2023-04-19T03:52:22;6.63;;;4.13;;
2107;SDS011;1060;52.492;13.388;2023-04-19T03:54:50;4.35;;;2.90;;
2107;SDS011;1060;52.492;13.388;2023-04-19T03:57:27;7.10;;;3.58;;
2107;SDS011;1060;52.492;13.388;2023-04-19T03:59:53;3.33;;;3.13;;
2107;SDS011;1060;52.492;13.388;2023-04-19T04:02:19;3.83;;;3.33;;
2107;SDS011;1060;52.492;13.388;2023-04-19T04:04:45;4.43;;;3.03;;
2107;SDS011;1060;52.492;13.388;2023-04-19T04:07:14;4.18;;;2.92;;
2107;SDS011;1060;52.492;13.388;2023-04-19T04:09:40;10.10;;;3.78;;
2107;SDS011;1060;52.492;13.388;2023-04-19T04:12:07;4.90;;;3.40;;
2107;SDS011;1060;52.492;13.388;2023-04-19T04:14:33;3.20;;;2.90;;
2107;SDS011;1060;52.492;13.388;2023-04-19T04:17:00;5.97;;;3.00;;
2107;SDS011;1060;52.492;13.388;2023-04-19T04:19:26;4.13;;;2.95;;
2107;SDS011;1060;52.492;13.388;2023-04-19T04:21:52;3.88;;;3.53;;
2107;SDS011;1060;52.492;13.388;2023-04-19T04:24:19;5.85;;;3.38;;
2107;SDS011;1060;52.492;13.388;2023-04-19T04:27:14;4.80;;;3.33;;
2107;SDS011;1060;52.492;13.388;2023-04-19T04:29:44;4.67;;;3.33;;
2107;SDS011;1060;52.492;13.388;2023-04-19T04:32:11;4.67;;;2.97;;
2107;SDS011;1060;52.492;13.388;2023-04-19T04:34:40;8.57;;;3.40;;
2107;SDS011;1060;52.492;13.388;2023-04-19T04:37:11;4.20;;;2.80;;
2107;SDS011;1060;52.492;13.388;2023-04-19T04:39:39;4.33;;;3.27;;
2107;SDS011;1060;52.492;13.388;2023-04-19T04:42:07;4.47;;;3.67;;
2107;SDS011;1060;52.492;13.388;2023-04-19T04:44:36;3.53;;;3.10;;
2107;SDS011;1060;52.492;13.388;2023-04-19T04:47:04;5.20;;;3.60;;
2107;SDS011;1060;52.492;13.388;2023-04-19T04:49:37;3.60;;;2.87;;
2107;SDS011;1060;52.492;13.388;2023-04-19T04:52:03;3.90;;;2.97;;
2107;SDS011;1060;52.492;13.388;2023-04-19T04:54:36;3.13;;;2.80;;
2107;SDS011;1060;52.492;13.388;2023-04-19T04:57:04;4.13;;;2.63;;
2107;SDS011;1060;52.492;13.388;2023-04-19T04:59:30;7.10;;;3.53;;
2107;SDS011;1060;52.492;13.388;2023-04-19T05:01:57;3.83;;;2.33;;
2107;SDS011;1060;52.492;13.388;2023-04-19T05:04:26;4.97;;;3.37;;
2107;SDS011;1060;52.492;13.388;2023-04-19T05:06:52;8.80;;;3.20;;
2107;SDS011;1060;52.492;13.388;2023-04-19T05:09:23;4.57;;;3.40;;
2107;SDS011;1060;52.492;13.388;2023-04-19T05:11:49;4.47;;;2.73;;
2107;SDS011;1060;52.492;13.388;2023-04-19T05:14:16;3.90;;;3.00;;
2107;SDS011;1060;52.492;13.388;2023-04-19T05:16:42;4.60;;;2.53;;
2107;SDS011;1060;52.492;13.388;2023-04-19T05:19:08;7.60;;;2.73;;
2107;SDS011;1060;52.492;13.388;2023-04-19T05:21:39;5.93;;;3.80;;
2107;SDS011;1060;52.492;13.388;2023-04-19T05:24:07;3.23;;;2.93;;
2107;SDS011;1060;52.492;13.388;2023-04-19T05:26:35;3.40;;;3.10;;
2107;SDS011;1060;52.492;13.388;2023-04-19T05:29:03;2.50;;;2.30;;
2107;SDS011;1060;52.492;13.388;2023-04-19T05:31:40;8.33;;;3.00;;
2107;SDS011;1060;52.492;13.388;2023-04-19T05:34:30;3.07;;;2.80;;
2107;SDS011;1060;52.492;13.388;2023-04-19T05:36:58;3.80;;;3.30;;
2107;SDS011;1060;52.492;13.388;2023-04-19T05:39:25;4.70;;;2.80;;
2107;SDS011;1060;52.492;13.388;2023-04-19T05:41:51;7.70;;;2.80;;
2107;SDS011;1060;52.492;13.388;2023-04-19T05:44:18;4.30;;;2.90;;
2107;SDS011;1060;52.492;13.388;2023-04-19T05:46:44;2.30;;;2.10;;
2107;SDS011;1060;52.492;13.388;2023-04-19T05:49:13;5.70;;;2.87;;
2107;SDS011;1060;52.492;13.388;2023-04-19T05:52:09;5.80;;;3.30;;
2107;SDS011;1060;52.492;13.388;2023-04-19T05:54:45;4.00;;;2.93;;
2107;SDS011;1060;52.492;13.388;2023-04-19T05:57:11;2.77;;;2.57;;
2107;SDS011;1060;52.492;13.388;2023-04-19T05:59:37;2.80;;;2.50;;
2107;SDS011;1060;52.492;13.388;2023-04-19T06:02:04;4.40;;;3.20;;
2107;SDS011;1060;52.492;13.388;2023-04-19T06:04:30;6.40;;;2.97;;
2107;SDS011;1060;52.492;13.388;2023-04-19T06:06:57;2.70;;;2.07;;
2107;SDS011;1060;52.492;13.388;2023-04-19T06:09:23;3.73;;;3.10;;
2107;SDS011;1060;52.492;13.388;2023-04-19T06:11:50;6.83;;;2.90;;
2107;SDS011;1060;52.492;13.388;2023-04-19T06:14:18;2.77;;;2.50;;
2107;SDS011;1060;52.492;13.388;2023-04-19T06:16:45;5.73;;;3.10;;
2107;SDS011;1060;52.492;13.388;2023-04-19T06:19:11;2.77;;;2.30;;
2107;SDS011;1060;52.492;13.388;2023-04-19T06:21:41;2.50;;;2.30;;
2107;SDS011;1060;52.492;13.388;2023-04-19T06:24:09;2.37;;;2.20;;
2107;SDS011;1060;52.492;13.388;2023-04-19T06:26:40;9.00;;;2.43;;
2107;SDS011;1060;52.492;13.388;2023-04-19T06:29:07;5.10;;;2.47;;
2107;SDS011;1060;52.492;13.388;2023-04-19T06:31:33;3.60;;;2.43;;
2107;SDS011;1060;52.492;13.388;2023-04-19T06:34:03;4.90;;;2.60;;
2107;SDS011;1060;52.492;13.388;2023-04-19T06:36:29;3.50;;;3.10;;
2107;SDS011;1060;52.492;13.388;2023-04-19T06:38:55;3.60;;;2.70;;
2107;SDS011;1060;52.492;13.388;2023-04-19T06:41:22;2.60;;;2.40;;
2107;SDS011;1060;52.492;13.388;2023-04-19T06:43:48;3.53;;;2.03;;
2107;SDS011;1060;52.492;13.388;2023-04-19T06:46:14;3.90;;;2.77;;
2107;SDS011;1060;52.492;13.388;2023-04-19T06:48:40;2.27;;;2.07;;
2107;SDS011;1060;52.492;13.388;2023-04-19T06:51:07;6.00;;;3.43;;
2107;SDS011;1060;52.492;13.388;2023-04-19T06:53:33;3.37;;;1.80;;
2107;SDS011;1060;52.492;13.388;2023-04-19T06:56:01;3.60;;;2.47;;
2107;SDS011;1060;52.492;13.388;2023-04-19T06:58:30;2.37;;;2.17;;
2107;SDS011;1060;52.492;13.388;2023-04-19T07:00:57;2.67;;;2.43;;
2107;SDS011;1060;52.492;13.388;2023-04-19T07:03:24;2.63;;;1.90;;
2107;SDS011;1060;52.492;13.388;2023-04-19T07:05:51;5.23;;;2.67;;
2107;SDS011;1060;52.492;13.388;2023-04-19T07:08:20;2.83;;;2.63;;
2107;SDS011;1060;52.492;13.388;2023-04-19T07:10:48;6.00;;;4.00;;
2107;SDS011;1060;52.492;13.388;2023-04-19T07:13:20;4.33;;;2.27;;
2107;SDS011;1060;52.492;13.388;2023-04-19T07:15:55;2.70;;;2.37;;
2107;SDS011;1060;52.492;13.388;2023-04-19T07:26:19;4.20;;;3.33;;
2107;SDS011;1060;52.492;13.388;2023-04-19T07:29:26;2.77;;;2.57;;
2107;SDS011;1060;52.492;13.388;2023-04-19T07:32:10;2.57;;;2.20;;
2107;SDS011;1060;52.492;13.388;2023-04-19T07:35:21;2.03;;;1.80;;
2107;SDS011;1060;52.492;13.388;2023-04-19T07:41:26;3.67;;;2.00;;
2107;SDS011;1060;52.492;13.388;2023-04-19T07:44:51;4.67;;;2.40;;
2107;SDS011;1060;52.492;13.388;2023-04-19T07:48:08;3.57;;;2.83;;
2107;SDS011;1060;52.492;13.388;2023-04-19T07:54:53;3.20;;;2.50;;
2107;SDS011;1060;52.492;13.388;2023-04-19T07:57:35;17.13;;;3.43;;
2107;SDS011;1060;52.492;13.388;2023-04-19T08:02:58;2.63;;;1.53;;
2107;SDS011;1060;52.492;13.388;2023-04-19T08:13:59;3.47;;;3.17;;
2107;SDS011;1060;52.492;13.388;2023-04-19T08:16:20;3.03;;;2.40;;
2107;SDS011;1060;52.492;13.388;2023-04-19T08:18:56;4.87;;;2.63;;
2107;SDS011;1060;52.492;13.388;2023-04-19T08:21:39;2.53;;;2.33;;
2107;SDS011;1060;52.492;13.388;2023-04-19T08:24:06;2.93;;;2.43;;
2107;SDS011;1060;52.492;13.388;2023-04-19T08:26:32;5.17;;;2.90;;
2107;SDS011;1060;52.492;13.388;2023-04-19T08:29:17;3.50;;;2.80;;
2107;SDS011;1060;52.492;13.388;2023-04-19T08:31:50;3.17;;;2.70;;
2107;SDS011;1060;52.492;13.388;2023-04-19T08:34:22;3.07;;;2.77;;
2107;SDS011;1060;52.492;13.388;2023-04-19T08:36:51;2.70;;;2.10;;
2107;SDS011;1060;52.492;13.388;2023-04-19T08:39:27;2.87;;;2.67;;
2107;SDS011;1060;52.492;13.388;2023-04-19T08:42:05;4.30;;;2.57;;
2107;SDS011;1060;52.492;13.388;2023-04-19T08:44:41;2.50;;;2.30;;
2107;SDS011;1060;52.492;13.388;2023-04-19T08:47:30;3.20;;;2.90;;
2107;SDS011;1060;52.492;13.388;2023-04-19T08:50:30;9.73;;;3.20;;
2107;SDS011;1060;52.492;13.388;2023-04-19T08:53:09;4.50;;;3.50;;
2107;SDS011;1060;52.492;13.388;2023-04-19T08:55:48;2.40;;;2.23;;
2107;SDS011;1060;52.492;13.388;2023-04-19T08:58:43;5.00;;;3.00;;
2107;SDS011;1060;52.492;13.388;2023-04-19T09:01:23;3.23;;;2.63;;
2107;SDS011;1060;52.492;13.388;2023-04-19T09:03:56;4.00;;;3.60;;
2107;SDS011;1060;52.492;13.388;2023-04-19T09:06:34;4.40;;;3.27;;
2107;SDS011;1060;52.492;13.388;2023-04-19T09:09:28;4.17;;;3.10;;
2107;SDS011;1060;52.492;13.388;2023-04-19T09:12:14;3.60;;;3.30;;
2107;SDS011;1060;52.492;13.388;2023-04-19T09:18:10;5.00;;;4.50;;
2107;SDS011;1060;52.492;13.388;2023-04-19T09:20:40;5.03;;;3.27;;
2107;SDS011;1060;52.492;13.388;2023-04-19T09:24:03;5.63;;;2.33;;
2107;SDS011;1060;52.492;13.388;2023-04-19T09:29:16;4.37;;;3.20;;
2107;SDS011;1060;52.492;13.388;2023-04-19T09:31:43;3.20;;;2.50;;
2107;SDS011;1060;52.492;13.388;2023-04-19T09:34:24;8.03;;;3.50;;
2107;SDS011;1060;52.492;13.388;2023-04-19T09:43:22;6.30;;;4.60;;
2107;SDS011;1060;52.492;13.388;2023-04-19T09:46:08;4.10;;;3.73;;
2107;SDS011;1060;52.492;13.388;2023-04-19T09:48:49;6.90;;;3.40;;
2107;SDS011;1060;52.492;13.388;2023-04-19T09:58:10;3.33;;;3.00;;
2107;SDS011;1060;52.492;13.388;2023-04-19T10:01:18;6.50;;;3.43;;
2107;SDS011;1060;52.492;13.388;2023-04-19T10:04:11;3.00;;;2.70;;
2107;SDS011;1060;52.492;13.388;2023-04-19T10:10:23;7.53;;;6.23;;
2107;SDS011;1060;52.492;13.388;2023-04-19T10:13:20;3.40;;;2.80;;
2107;SDS011;1060;52.492;13.388;2023-04-19T10:16:03;4.80;;;3.87;;
2107;SDS011;1060;52.492;13.388;2023-04-19T10:18:48;4.77;;;3.03;;
2107;SDS011;1060;52.492;13.388;2023-04-19T10:21:22;4.73;;;3.33;;
2107;SDS011;1060;52.492;13.388;2023-04-19T10:24:14;3.90;;;3.50;;
2107;SDS011;1060;52.492;13.388;2023-04-19T10:27:28;4.77;;;3.77;;
2107;SDS011;1060;52.492;13.388;2023-04-19T10:30:20;4.60;;;4.10;;
2107;SDS011;1060;52.492;13.388;2023-04-19T10:36:44;4.10;;;3.07;;
2107;SDS011;1060;52.492;13.388;2023-04-19T10:45:39;4.00;;;3.60;;
2107;SDS011;1060;52.492;13.388;2023-04-19T10:49:02;4.60;;;3.47;;
2107;SDS011;1060;52.492;13.388;2023-04-19T10:51:46;3.83;;;2.87;;
2107;SDS011;1060;52.492;13.388;2023-04-19T10:54:29;4.40;;;3.50;;
2107;SDS011;1060;52.492;13.388;2023-04-19T11:18:40;3.70;;;3.40;;
2107;SDS011;1060;52.492;13.388;2023-04-19T11:21:48;6.53;;;4.53;;
2107;SDS011;1060;52.492;13.388;2023-04-19T11:24:49;4.67;;;3.23;;
2107;SDS011;1060;52.492;13.388;2023-04-19T11:27:56;5.27;;;3.53;;
2107;SDS011;1060;52.492;13.388;2023-04-19T11:30:29;3.47;;;3.13;;
2107;SDS011;1060;52.492;13.388;2023-04-19T11:33:07;12.30;;;4.07;;
2107;SDS011;1060;52.492;13.388;2023-04-19T11:35:52;5.30;;;3.70;;
2107;SDS011;1060;52.492;13.388;2023-04-19T11:38:28;5.00;;;2.87;;
2107;SDS011;1060;52.492;13.388;2023-04-19T11:41:35;7.07;;;3.63;;
2107;SDS011;1060;52.492;13.388;2023-04-19T11:44:28;4.83;;;3.00;;
2107;SDS011;1060;52.492;13.388;2023-04-19T11:50:34;5.87;;;3.27;;
2107;SDS011;1060;52.492;13.388;2023-04-19T11:53:16;4.97;;;4.20;;
2107;SDS011;1060;52.492;13.388;2023-04-19T11:58:21;5.03;;;4.00;;
2107;SDS011;1060;52.492;13.388;2023-04-19T12:01:07;4.80;;;3.90;;
2107;SDS011;1060;52.492;13.388;2023-04-19T12:03:53;5.20;;;4.20;;
2107;SDS011;1060;52.492;13.388;2023-04-19T12:06:42;5.27;;;3.50;;
2107;SDS011;1060;52.492;13.388;2023-04-19T12:09:19;3.60;;;3.30;;
2107;SDS011;1060;52.492;13.388;2023-04-19T14:11:42;7.00;;;4.77;;
2107;SDS011;1060;52.492;13.388;2023-04-19T14:14:12;6.50;;;4.03;;
2107;SDS011;1060;52.492;13.388;2023-04-19T14:16:49;3.90;;;3.60;;
2107;SDS011;1060;52.492;13.388;2023-04-19T14:25:57;5.27;;;4.40;;
2107;SDS011;1060;52.492;13.388;2023-04-19T14:28:31;4.80;;;3.90;;
2107;SDS011;1060;52.492;13.388;2023-04-19T14:31:07;5.53;;;3.67;;
2107;SDS011;1060;52.492;13.388;2023-04-19T14:33:55;3.97;;;3.13;;
2107;SDS011;1060;52.492;13.388;2023-04-19T15:32:12;9.17;;;7.77;;
2107;SDS011;1060;52.492;13.388;2023-04-19T15:34:56;17.53;;;9.33;;
2107;SDS011;1060;52.492;13.388;2023-04-19T15:45:08;11.43;;;8.20;;
2107;SDS011;1060;52.492;13.388;2023-04-19T15:47:46;17.77;;;11.15;;
2107;SDS011;1060;52.492;13.388;2023-04-19T15:50:12;20.80;;;11.10;;
2107;SDS011;1060;52.492;13.388;2023-04-19T15:53:01;13.27;;;8.00;;
2107;SDS011;1060;52.492;13.388;2023-04-19T15:55:30;13.90;;;9.67;;
2107;SDS011;1060;52.492;13.388;2023-04-19T15:58:12;23.67;;;12.10;;
2107;SDS011;1060;52.492;13.388;2023-04-19T16:00:41;16.37;;;10.43;;
2107;SDS011;1060;52.492;13.388;2023-04-19T16:03:07;13.27;;;10.43;;
2107;SDS011;1060;52.492;13.388;2023-04-19T16:05:49;15.68;;;10.60;;
2107;SDS011;1060;52.492;13.388;2023-04-19T16:08:21;13.32;;;11.75;;
2107;SDS011;1060;52.492;13.388;2023-04-19T16:10:59;20.20;;;12.10;;
2107;SDS011;1060;52.492;13.388;2023-04-19T16:40:07;18.73;;;13.30;;
2107;SDS011;1060;52.492;13.388;2023-04-19T16:50:46;15.83;;;14.00;;
2107;SDS011;1060;52.492;13.388;2023-04-19T16:52:57;20.77;;;13.70;;
2107;SDS011;1060;52.492;13.388;2023-04-19T16:55:39;19.20;;;13.27;;
2107;SDS011;1060;52.492;13.388;2023-04-19T16:58:08;14.90;;;9.87;;
2107;SDS011;1060;52.492;13.388;2023-04-19T17:00:37;15.17;;;12.40;;
2107;SDS011;1060;52.492;13.388;2023-04-19T17:03:09;23.23;;;14.77;;
2107;SDS011;1060;52.492;13.388;2023-04-19T17:06:02;18.43;;;15.77;;
2107;SDS011;1060;52.492;13.388;2023-04-19T17:08:33;15.87;;;13.10;;
2107;SDS011;1060;52.492;13.388;2023-04-19T17:11:23;23.33;;;15.80;;
2107;SDS011;1060;52.492;13.388;2023-04-19T17:14:00;17.17;;;12.27;;
2107;SDS011;1060;52.492;13.388;2023-04-19T17:16:27;26.13;;;15.17;;
2107;SDS011;1060;52.492;13.388;2023-04-19T17:18:54;15.63;;;14.00;;
2107;SDS011;1060;52.492;13.388;2023-04-19T17:21:20;16.60;;;13.13;;
2107;SDS011;1060;52.492;13.388;2023-04-19T17:23:47;20.13;;;16.20;;
2107;SDS011;1060;52.492;13.388;2023-04-19T17:26:13;17.03;;;13.67;;
2107;SDS011;1060;52.492;13.388;2023-04-19T17:28:46;19.20;;;11.63;;
2107;SDS011;1060;52.492;13.388;2023-04-19T17:31:12;18.57;;;11.57;;
2107;SDS011;1060;52.492;13.388;2023-04-19T17:33:43;12.53;;;11.33;;
2107;SDS011;1060;52.492;13.388;2023-04-19T17:36:09;12.97;;;11.67;;
2107;SDS011;1060;52.492;13.388;2023-04-19T17:38:36;17.80;;;13.00;;
2107;SDS011;1060;52.492;13.388;2023-04-19T17:41:02;21.90;;;14.00;;
2107;SDS011;1060;52.492;13.388;2023-04-19T17:43:28;12.40;;;11.10;;
2107;SDS011;1060;52.492;13.388;2023-04-19T17:45:55;17.92;;;12.52;;
2107;SDS011;1060;52.492;13.388;2023-04-19T17:48:24;13.40;;;12.00;;
2107;SDS011;1060;52.492;13.388;2023-04-19T17:50:50;17.73;;;12.23;;
2107;SDS011;1060;52.492;13.388;2023-04-19T17:53:16;26.77;;;13.80;;
2107;SDS011;1060;52.492;13.388;2023-04-19T17:55:42;15.87;;;13.10;;
2107;SDS011;1060;52.492;13.388;2023-04-19T17:58:09;18.33;;;16.33;;
2107;SDS011;1060;52.492;13.388;2023-04-19T18:00:36;25.60;;;14.37;;
2107;SDS011;1060;52.492;13.388;2023-04-19T18:03:02;20.73;;;14.33;;
2107;SDS011;1060;52.492;13.388;2023-04-19T18:05:29;12.33;;;11.10;;
2107;SDS011;1060;52.492;13.388;2023-04-19T18:07:55;17.35;;;15.57;;
2107;SDS011;1060;52.492;13.388;2023-04-19T18:10:21;15.57;;;13.97;;
2107;SDS011;1060;52.492;13.388;2023-04-19T18:12:50;15.00;;;13.30;;
2107;SDS011;1060;52.492;13.388;2023-04-19T18:15:17;16.57;;;13.80;;
2107;SDS011;1060;52.492;13.388;2023-04-19T18:17:44;14.93;;;13.60;;
2107;SDS011;1060;52.492;13.388;2023-04-19T18:20:10;16.80;;;13.53;;
2107;SDS011;1060;52.492;13.388;2023-04-19T18:22:40;14.60;;;13.20;;
2107;SDS011;1060;52.492;13.388;2023-04-19T18:25:16;16.67;;;14.80;;
2107;SDS011;1060;52.492;13.388;2023-04-19T18:27:43;17.63;;;15.37;;
2107;SDS011;1060;52.492;13.388;2023-04-19T18:30:09;18.83;;;16.90;;
2107;SDS011;1060;52.492;13.388;2023-04-19T18:32:36;30.07;;;16.97;;
2107;SDS011;1060;52.492;13.388;2023-04-19T18:35:03;18.77;;;16.70;;
2107;SDS011;1060;52.492;13.388;2023-04-19T18:38:06;16.83;;;15.10;;
2107;SDS011;1060;52.492;13.388;2023-04-19T18:40:56;19.47;;;17.67;;
2107;SDS011;1060;52.492;13.388;2023-04-19T18:43:23;18.97;;;16.97;;
2107;SDS011;1060;52.492;13.388;2023-04-19T18:45:53;20.70;;;18.47;;
2107;SDS011;1060;52.492;13.388;2023-04-19T18:48:21;20.13;;;17.97;;
2107;SDS011;1060;52.492;13.388;2023-04-19T18:50:51;20.30;;;16.33;;
2107;SDS011;1060;52.492;13.388;2023-04-19T18:53:20;20.37;;;18.40;;
2107;SDS011;1060;52.492;13.388;2023-04-19T18:55:49;23.63;;;18.03;;
2107;SDS011;1060;52.492;13.388;2023-04-19T18:58:25;19.57;;;17.60;;
2107;SDS011;1060;52.492;13.388;2023-04-19T19:00:55;22.40;;;20.10;;
2107;SDS011;1060;52.492;13.388;2023-04-19T19:03:22;22.93;;;20.53;;
2107;SDS011;1060;52.492;13.388;2023-04-19T19:05:54;31.73;;;23.20;;
2107;SDS011;1060;52.492;13.388;2023-04-19T19:08:26;27.30;;;23.07;;
2107;SDS011;1060;52.492;13.388;2023-04-19T19:10:52;22.23;;;19.87;;
2107;SDS011;1060;52.492;13.388;2023-04-19T19:13:27;28.60;;;24.50;;
2107;SDS011;1060;52.492;13.388;2023-04-19T19:15:56;25.33;;;22.67;;
2107;SDS011;1060;52.492;13.388;2023-04-19T19:18:30;23.97;;;21.40;;
2107;SDS011;1060;52.492;13.388;2023-04-19T19:20:57;25.67;;;23.10;;
2107;SDS011;1060;52.492;13.388;2023-04-19T19:23:27;27.73;;;22.43;;
2107;SDS011;1060;52.492;13.388;2023-04-19T19:25:53;23.07;;;20.73;;
2107;SDS011;1060;52.492;13.388;2023-04-19T19:28:21;26.53;;;23.83;;
2107;SDS011;1060;52.492;13.388;2023-04-19T19:30:48;28.10;;;23.97;;
2107;SDS011;1060;52.492;13.388;2023-04-19T19:33:17;23.87;;;21.23;;
2107;SDS011;1060;52.492;13.388;2023-04-19T19:35:44;28.77;;;24.67;;
2107;SDS011;1060;52.492;13.388;2023-04-19T19:38:10;30.77;;;21.80;;
2107;SDS011;1060;52.492;13.388;2023-04-19T19:40:37;25.60;;;22.97;;
2107;SDS011;1060;52.492;13.388;2023-04-19T19:43:03;23.90;;;20.90;;
2107;SDS011;1060;52.492;13.388;2023-04-19T19:45:30;28.93;;;26.17;;
2107;SDS011;1060;52.492;13.388;2023-04-19T19:48:03;28.73;;;25.13;;
2107;SDS011;1060;52.492;13.388;2023-04-19T19:50:30;27.60;;;24.63;;
2107;SDS011;1060;52.492;13.388;2023-04-19T19:52:59;28.60;;;25.67;;
2107;SDS011;1060;52.492;13.388;2023-04-19T19:55:28;27.43;;;24.47;;
2107;SDS011;1060;52.492;13.388;2023-04-19T19:57:57;27.33;;;24.53;;
2107;SDS011;1060;52.492;13.388;2023-04-19T20:00:24;31.77;;;28.10;;
2107;SDS011;1060;52.492;13.388;2023-04-19T20:03:14;31.90;;;26.10;;
2107;SDS011;1060;52.492;13.388;2023-04-19T20:05:43;30.10;;;27.20;;
2107;SDS011;1060;52.492;13.388;2023-04-19T20:08:14;38.00;;;26.00;;
2107;SDS011;1060;52.492;13.388;2023-04-19T20:10:40;31.47;;;26.90;;
2107;SDS011;1060;52.492;13.388;2023-04-19T20:13:07;29.57;;;25.30;;
2107;SDS011;1060;52.492;13.388;2023-04-19T20:15:39;28.60;;;25.47;;
2107;SDS011;1060;52.492;13.388;2023-04-19T20:18:05;26.00;;;22.43;;
2107;SDS011;1060;52.492;13.388;2023-04-19T20:20:34;34.40;;;26.40;;
2107;SDS011;1060;52.492;13.388;2023-04-19T20:23:02;29.50;;;26.30;;
2107;SDS011;1060;52.492;13.388;2023-04-19T20:25:29;33.03;;;28.53;;
2107;SDS011;1060;52.492;13.388;2023-04-19T20:27:59;33.77;;;25.20;;
2107;SDS011;1060;52.492;13.388;2023-04-19T20:30:32;30.07;;;26.97;;
2107;SDS011;1060;52.492;13.388;2023-04-19T20:33:01;28.00;;;25.13;;
2107;SDS011;1060;52.492;13.388;2023-04-19T20:35:27;27.67;;;24.80;;
2107;SDS011;1060;52.492;13.388;2023-04-19T20:37:54;31.20;;;24.63;;
2107;SDS011;1060;52.492;13.388;2023-04-19T20:40:28;35.97;;;26.90;;